Etusivu
METAR-TAF:

METAR-TAF

Lentoasemat :

Kuressaari, Viro

Kuressaaren lentoasema

Leveyspiiri: 58-13-48N, Pituuspiiri: 022-30-34E, korkeus merenpinnasta: 4 m

Tämänhetkinen sää

Tämä raportti tehtiin 45 minuuttia sitten, kello 05.50 UTC
Tuuli 11 kn pohjoisesta puuskistuen 21 kn:hen
Lämpötila 14°C
Kosteus 67%
Ilmanpaine 1008 hPa
Näkyvyys 10 km tai enemmän
Hajanaisia pilviä 2900 ft:n korkeudessa

METAR: EEKE 240550Z 35011G21KT 9999 SCT029 14/08 Q1008

Aika: 09:35 (06:35 UTC)

Sääennuste

Tämä raportti tehtiin 1 tunti ja 35 minuuttia sitten, kello 05.00 UTC
Ennuste voimassa 24. päivästä klo 06 UTC - 24. päivään klo 12 UTC
Tuuli 12 kn pohjoisen/luoteesta
Näkyvyys 10 km tai enemmän
Hajanaisia pilviä 2000 ft:n korkeudessa
Todennäköisyys 40% :
Ajoittain
24. päivästä klo 06 UTC - 24. päivään klo 12 UTC
Tuuli 16 kn pohjoisesta puuskistuen 27 kn:hen

TAF: EEKE 240500Z 2406/2412 34012KT 9999 SCT020 PROB40 TEMPO 2406/2412 35016G27KT

Säähavainnot ja -ennusteet yli 4000 lentoasemalta (METAR- ja TAF-raportit).

Käytössä olevat sääasemat on merkitty karttaan keltaisilla ja punaisilla pisteillä.

Aseta hiiri pisteen päälle nähdäksesi sääaseman nimen.

Klikkaa sitten nähdäksesi säähavainnot ja -ennusteet.

Kartan vaihtaminen: klikkaa mustalla rastilla varustettuja vihreitä pisteitä, niin voit zoomata sisään; viivalla varustettua vihreää pistettä, niin voit zoomata ulos tai vihreitä nuolia, niin pääset viereisille kartoille.


METAR-TAF: